DAL2122 KLGA-KPIT
Flight info
| Callsign | DAL2122 |
|---|---|
| Flight time | N/A |
| Altitude | 32000 |
| Route | ZIMMZ Q42 MIKYG Q480 VINSE DEMME5 |
| Aircraft | B738/M-SDE2E3FGHIRWXY/LB1 |
Departure
| Time | 2026-05-05 13:59 |
|---|---|
| Airport | LaGuardia Airport (KLGA) |
Arrival
| Time | N/A |
|---|---|
| Airport | Pittsburgh International Airport (KPIT) |
| Time | Latitude | Longitude | Altitude | Speed | Heading |
|---|---|---|---|---|---|
| 2026-05-05 13:42 | 40.77040 | -73.86146 | 15 ft | 0 kts | 127° |
| 2026-05-05 13:51 | 40.77043 | -73.86151 | 15 ft | 3 kts | 127° |
| 2026-05-05 13:51 | 40.77057 | -73.86178 | 15 ft | 4 kts | 114° |
| 2026-05-05 13:51 | 40.77059 | -73.86208 | 16 ft | 4 kts | 60° |
| 2026-05-05 13:51 | 40.77047 | -73.86228 | 17 ft | 1 kts | 42° |
| 2026-05-05 13:52 | 40.77044 | -73.86231 | 17 ft | 1 kts | 42° |
| 2026-05-05 13:54 | 40.77069 | -73.86202 | 15 ft | 10 kts | 41° |
| 2026-05-05 13:54 | 40.77138 | -73.86144 | 14 ft | 13 kts | 356° |
| 2026-05-05 13:55 | 40.77223 | -73.86160 | 16 ft | 12 kts | 327° |
| 2026-05-05 13:55 | 40.77276 | -73.86248 | 18 ft | 13 kts | 312° |
| 2026-05-05 13:55 | 40.77365 | -73.86289 | 16 ft | 16 kts | 318° |
| 2026-05-05 13:55 | 40.77433 | -73.86421 | 15 ft | 19 kts | 302° |
| 2026-05-05 13:56 | 40.77511 | -73.86584 | 12 ft | 23 kts | 302° |
| 2026-05-05 13:56 | 40.77599 | -73.86767 | 14 ft | 23 kts | 302° |
| 2026-05-05 13:56 | 40.77688 | -73.86953 | 16 ft | 24 kts | 302° |
| 2026-05-05 13:56 | 40.77774 | -73.87134 | 19 ft | 23 kts | 302° |
| 2026-05-05 13:57 | 40.77858 | -73.87311 | 20 ft | 23 kts | 302° |
| 2026-05-05 13:57 | 40.77942 | -73.87486 | 19 ft | 24 kts | 302° |
| 2026-05-05 13:57 | 40.78034 | -73.87681 | 18 ft | 25 kts | 302° |
| 2026-05-05 13:57 | 40.78107 | -73.87828 | 17 ft | 18 kts | 313° |
| 2026-05-05 13:58 | 40.78209 | -73.87820 | 20 ft | 18 kts | 80° |
| 2026-05-05 13:58 | 40.78104 | -73.87576 | 17 ft | 63 kts | 122° |
| 2026-05-05 13:58 | 40.77729 | -73.86799 | 17 ft | 136 kts | 122° |
| 2026-05-05 13:58 | 40.77130 | -73.85553 | 300 ft | 168 kts | 125° |
| 2026-05-05 13:59 | 40.75263 | -73.83555 | 1640 ft | 187 kts | 177° |
| 2026-05-05 13:59 | 40.73959 | -73.83248 | 2385 ft | 203 kts | 176° |
| 2026-05-05 14:00 | 40.71045 | -73.83438 | 3277 ft | 219 kts | 213° |
| 2026-05-05 14:00 | 40.70220 | -73.84171 | 3864 ft | 214 kts | 225° |
| 2026-05-05 14:00 | 40.68873 | -73.86089 | 5014 ft | 214 kts | 231° |
| 2026-05-05 14:00 | 40.67974 | -73.87652 | 5853 ft | 216 kts | 244° |
| 2026-05-05 14:01 | 40.67619 | -73.89580 | 6643 ft | 222 kts | 265° |
| 2026-05-05 14:01 | 40.67940 | -73.91691 | 6967 ft | 255 kts | 289° |
| 2026-05-05 14:01 | 40.68813 | -73.93806 | 7568 ft | 267 kts | 295° |
| 2026-05-05 14:01 | 40.69789 | -73.95922 | 8364 ft | 270 kts | 295° |
| 2026-05-05 14:02 | 40.70834 | -73.97996 | 9238 ft | 276 kts | 303° |
| 2026-05-05 14:02 | 40.72136 | -73.99839 | 10068 ft | 280 kts | 307° |
| 2026-05-05 14:02 | 40.73462 | -74.01771 | 10542 ft | 290 kts | 296° |
| 2026-05-05 14:02 | 40.74100 | -74.04348 | 10735 ft | 301 kts | 272° |
| 2026-05-05 14:03 | 40.74264 | -74.07143 | 11039 ft | 317 kts | 270° |
| 2026-05-05 14:03 | 40.74388 | -74.10038 | 11806 ft | 318 kts | 270° |
| 2026-05-05 14:03 | 40.74520 | -74.12980 | 12457 ft | 324 kts | 271° |
| 2026-05-05 14:03 | 40.74670 | -74.15954 | 13207 ft | 327 kts | 271° |
| 2026-05-05 14:04 | 40.74834 | -74.18953 | 13972 ft | 328 kts | 272° |
| 2026-05-05 14:04 | 40.75009 | -74.21970 | 14636 ft | 331 kts | 272° |
| 2026-05-05 14:04 | 40.75191 | -74.25025 | 15243 ft | 336 kts | 272° |
| 2026-05-05 14:04 | 40.75378 | -74.28106 | 15850 ft | 340 kts | 272° |
| 2026-05-05 14:05 | 40.75569 | -74.31237 | 16470 ft | 344 kts | 273° |
| 2026-05-05 14:05 | 40.75763 | -74.34398 | 17095 ft | 347 kts | 273° |
| 2026-05-05 14:05 | 40.75959 | -74.37595 | 17706 ft | 351 kts | 273° |
| 2026-05-05 14:05 | 40.76156 | -74.40829 | 18292 ft | 355 kts | 273° |
| 2026-05-05 14:06 | 40.76356 | -74.44102 | 18802 ft | 359 kts | 273° |
| 2026-05-05 14:06 | 40.76555 | -74.47395 | 19360 ft | 361 kts | 273° |
| 2026-05-05 14:06 | 40.76755 | -74.50710 | 19911 ft | 364 kts | 273° |
| 2026-05-05 14:06 | 40.76955 | -74.54046 | 20436 ft | 367 kts | 273° |
| 2026-05-05 14:07 | 40.77157 | -74.57418 | 20947 ft | 370 kts | 274° |
| 2026-05-05 14:07 | 40.77359 | -74.60820 | 21437 ft | 373 kts | 274° |
| 2026-05-05 14:07 | 40.77562 | -74.64250 | 21933 ft | 376 kts | 274° |
| 2026-05-05 14:07 | 40.77765 | -74.67707 | 22429 ft | 379 kts | 274° |
| 2026-05-05 14:08 | 40.77966 | -74.71140 | 22920 ft | 382 kts | 274° |
| 2026-05-05 14:08 | 40.78170 | -74.74638 | 23394 ft | 385 kts | 274° |
| 2026-05-05 14:08 | 40.78375 | -74.78178 | 23791 ft | 388 kts | 274° |
| 2026-05-05 14:08 | 40.78580 | -74.81745 | 24150 ft | 391 kts | 274° |
| 2026-05-05 14:09 | 40.78786 | -74.85340 | 24507 ft | 394 kts | 274° |
| 2026-05-05 14:09 | 40.78992 | -74.88971 | 24868 ft | 397 kts | 274° |
| 2026-05-05 14:09 | 40.79199 | -74.92620 | 25219 ft | 400 kts | 274° |
| 2026-05-05 14:09 | 40.79406 | -74.96296 | 25568 ft | 403 kts | 274° |
| 2026-05-05 14:10 | 40.79614 | -74.99995 | 25905 ft | 406 kts | 274° |
| 2026-05-05 14:10 | 40.79822 | -75.03726 | 26236 ft | 409 kts | 273° |
| 2026-05-05 14:10 | 40.80030 | -75.07474 | 26569 ft | 411 kts | 273° |
| 2026-05-05 14:10 | 40.80188 | -75.11251 | 26941 ft | 413 kts | 269° |
| 2026-05-05 14:11 | 40.79988 | -75.15029 | 27412 ft | 411 kts | 261° |
| 2026-05-05 14:11 | 40.79444 | -75.18724 | 27933 ft | 409 kts | 258° |
| 2026-05-05 14:11 | 40.78871 | -75.22402 | 28373 ft | 409 kts | 258° |
| 2026-05-05 14:11 | 40.78305 | -75.26087 | 28777 ft | 410 kts | 259° |
| 2026-05-05 14:12 | 40.77754 | -75.29773 | 29215 ft | 410 kts | 259° |
| 2026-05-05 14:12 | 40.77211 | -75.33460 | 29682 ft | 409 kts | 259° |
| 2026-05-05 14:12 | 40.76627 | -75.37126 | 30100 ft | 408 kts | 255° |
| 2026-05-05 14:12 | 40.75717 | -75.40622 | 30437 ft | 409 kts | 246° |
| 2026-05-05 14:13 | 40.74461 | -75.44039 | 30824 ft | 408 kts | 245° |
| 2026-05-05 14:13 | 40.73209 | -75.47335 | 31210 ft | 407 kts | 244° |
| 2026-05-05 14:13 | 40.71938 | -75.50676 | 31484 ft | 409 kts | 245° |
| 2026-05-05 14:13 | 40.70673 | -75.54023 | 31733 ft | 408 kts | 245° |
| 2026-05-05 14:14 | 40.69414 | -75.57371 | 31937 ft | 407 kts | 245° |
| 2026-05-05 14:14 | 40.68159 | -75.60725 | 31922 ft | 409 kts | 245° |
| 2026-05-05 14:14 | 40.65664 | -75.67409 | 31934 ft | 405 kts | 245° |
| 2026-05-05 14:15 | 40.63179 | -75.74055 | 31939 ft | 404 kts | 245° |
| 2026-05-05 14:15 | 40.61095 | -75.79615 | 31938 ft | 404 kts | 245° |
| 2026-05-05 14:16 | 40.58181 | -75.87320 | 31928 ft | 404 kts | 245° |
| 2026-05-05 14:16 | 40.56082 | -75.92820 | 31925 ft | 405 kts | 245° |
| 2026-05-05 14:17 | 40.53548 | -75.99446 | 31928 ft | 406 kts | 245° |
| 2026-05-05 14:17 | 40.51009 | -76.06081 | 31929 ft | 407 kts | 245° |
| 2026-05-05 14:18 | 40.48461 | -76.12724 | 31923 ft | 407 kts | 245° |
| 2026-05-05 14:18 | 40.45907 | -76.19371 | 31924 ft | 408 kts | 245° |
| 2026-05-05 14:19 | 40.43346 | -76.26021 | 31927 ft | 408 kts | 245° |
| 2026-05-05 14:19 | 40.40779 | -76.32673 | 31912 ft | 409 kts | 245° |
| 2026-05-05 14:20 | 40.38204 | -76.39329 | 31908 ft | 409 kts | 245° |
| 2026-05-05 14:20 | 40.35626 | -76.45985 | 31904 ft | 410 kts | 245° |
| 2026-05-05 14:21 | 40.33028 | -76.52628 | 31913 ft | 410 kts | 245° |
| 2026-05-05 14:21 | 40.30375 | -76.59258 | 31905 ft | 410 kts | 245° |
| 2026-05-05 14:22 | 40.27738 | -76.65821 | 31919 ft | 410 kts | 245° |
| 2026-05-05 14:22 | 40.25067 | -76.72471 | 31915 ft | 410 kts | 245° |
| 2026-05-05 14:23 | 40.22432 | -76.79023 | 31913 ft | 409 kts | 245° |
| 2026-05-05 14:23 | 40.19777 | -76.85615 | 31924 ft | 409 kts | 245° |
| 2026-05-05 14:24 | 40.17124 | -76.92189 | 31927 ft | 409 kts | 245° |
| 2026-05-05 14:24 | 40.14467 | -76.98756 | 31925 ft | 408 kts | 245° |
| 2026-05-05 14:25 | 40.11810 | -77.05311 | 31922 ft | 408 kts | 245° |
| 2026-05-05 14:25 | 40.09155 | -77.11845 | 31917 ft | 407 kts | 245° |
| 2026-05-05 14:26 | 40.06499 | -77.18370 | 31927 ft | 407 kts | 245° |
| 2026-05-05 14:26 | 40.03843 | -77.24880 | 31922 ft | 406 kts | 245° |
| 2026-05-05 14:27 | 40.01185 | -77.31382 | 31922 ft | 406 kts | 245° |
| 2026-05-05 14:27 | 39.98526 | -77.37873 | 31925 ft | 406 kts | 245° |
| 2026-05-05 14:28 | 39.96344 | -77.44576 | 31933 ft | 399 kts | 259° |
| 2026-05-05 14:28 | 39.95729 | -77.51642 | 31930 ft | 394 kts | 274° |
| 2026-05-05 14:29 | 39.95972 | -77.58770 | 31928 ft | 394 kts | 274° |
| 2026-05-05 14:29 | 39.96230 | -77.65895 | 31926 ft | 393 kts | 274° |
| 2026-05-05 14:30 | 39.96455 | -77.73016 | 31927 ft | 392 kts | 274° |
| 2026-05-05 14:30 | 39.96663 | -77.80107 | 31922 ft | 391 kts | 274° |
| 2026-05-05 14:31 | 39.96865 | -77.87180 | 31925 ft | 390 kts | 274° |
| 2026-05-05 14:31 | 39.97062 | -77.94221 | 31909 ft | 388 kts | 274° |
| 2026-05-05 14:32 | 39.97257 | -78.01227 | 31916 ft | 385 kts | 274° |
| 2026-05-05 14:32 | 39.97449 | -78.08148 | 31911 ft | 384 kts | 274° |
| 2026-05-05 14:33 | 39.97637 | -78.15094 | 31911 ft | 382 kts | 274° |
| 2026-05-05 14:33 | 39.97820 | -78.21995 | 31915 ft | 380 kts | 274° |
| 2026-05-05 14:34 | 39.97999 | -78.28889 | 31912 ft | 380 kts | 273° |
| 2026-05-05 14:34 | 39.98086 | -78.32316 | 31603 ft | 375 kts | 273° |
| 2026-05-05 14:34 | 39.98172 | -78.35716 | 30615 ft | 377 kts | 273° |
| 2026-05-05 14:35 | 39.98259 | -78.39181 | 29328 ft | 387 kts | 272° |
| 2026-05-05 14:35 | 39.98345 | -78.42656 | 28265 ft | 388 kts | 272° |
| 2026-05-05 14:35 | 39.98429 | -78.46153 | 27495 ft | 383 kts | 272° |
| 2026-05-05 14:35 | 39.98511 | -78.49585 | 26974 ft | 373 kts | 272° |